createdAt,value
2022-11-07T00:01:53.073Z,100511.28
2022-11-07T00:04:21.377Z,100519.25
2022-11-07T00:06:48.432Z,100526.97
2022-11-07T00:09:15.562Z,100520.25
2022-11-07T00:11:42.506Z,100512.94
2022-11-07T00:14:12.111Z,100517.81
2022-11-07T00:16:39.309Z,100533.50
2022-11-07T00:19:06.591Z,100528.78
2022-11-07T00:21:34.903Z,100542.28
2022-11-07T00:24:01.866Z,100539.19
2022-11-07T00:26:28.839Z,100533.69
2022-11-07T00:28:56.270Z,100536.56
2022-11-07T00:31:23.392Z,100546.00
2022-11-07T00:33:50.459Z,100534.75
2022-11-07T00:36:19.368Z,100540.41
2022-11-07T00:38:50.405Z,100546.00
2022-11-07T00:41:18.197Z,100550.25
2022-11-07T00:43:45.767Z,100548.78
2022-11-07T00:46:15.355Z,100563.06
2022-11-07T00:48:43.176Z,100553.63
2022-11-07T00:51:13.426Z,100554.06
2022-11-07T00:53:41.038Z,100559.31
2022-11-07T00:56:12.763Z,100558.09
2022-11-07T00:58:39.970Z,100557.09
2022-11-07T01:01:09.090Z,100555.25
2022-11-07T01:03:54.849Z,100563.84
2022-11-07T01:06:21.953Z,100547.94
2022-11-07T01:08:48.973Z,100556.72
2022-11-07T01:11:17.460Z,100541.78
2022-11-07T01:13:44.418Z,100567.09
2022-11-07T01:16:12.039Z,100565.88
2022-11-07T01:18:39.479Z,100564.22
2022-11-07T01:21:10.947Z,100561.75
2022-11-07T01:23:42.213Z,100568.28
2022-11-07T01:26:12.177Z,100571.50
2022-11-07T01:28:41.439Z,100572.50
2022-11-07T01:31:12.428Z,100573.09
2022-11-07T01:33:40.231Z,100576.16
2022-11-07T01:36:11.473Z,100569.84
2022-11-07T01:38:40.754Z,100573.25
2022-11-07T01:41:22.259Z,100574.63
2022-11-07T01:43:56.336Z,100566.41
2022-11-07T01:46:29.862Z,100574.56
2022-11-07T01:49:07.403Z,100573.97
2022-11-07T01:51:46.300Z,100572.56
2022-11-07T01:54:16.982Z,100572.16
2022-11-07T01:56:45.644Z,100563.13
2022-11-07T01:59:19.986Z,100565.53
2022-11-07T02:01:47.674Z,100566.97
2022-11-07T02:04:16.239Z,100563.28
2022-11-07T02:06:47.860Z,100570.84
2022-11-07T02:09:15.610Z,100564.69
2022-11-07T02:11:43.728Z,100573.25
2022-11-07T02:14:17.606Z,100581.81
2022-11-07T02:16:46.143Z,100574.91
2022-11-07T02:19:25.878Z,100571.47
2022-11-07T02:22:03.187Z,100582.63
2022-11-07T02:24:35.766Z,100574.19
2022-11-07T02:27:09.773Z,100580.25
2022-11-07T02:29:39.546Z,100575.31
2022-11-07T02:32:09.881Z,100571.00
2022-11-07T02:34:37.346Z,100581.66
2022-11-07T02:37:13.200Z,100578.00
2022-11-07T02:39:41.631Z,100567.03
2022-11-07T02:42:09.526Z,100575.03
2022-11-07T02:44:36.576Z,100574.78
2022-11-07T02:47:04.764Z,100576.78
2022-11-07T02:49:31.922Z,100575.97
2022-11-07T02:51:58.842Z,100573.53
2022-11-07T02:54:25.933Z,100579.94
2022-11-07T02:56:54.233Z,100576.09
2022-11-07T02:59:26.656Z,100576.13
2022-11-07T03:01:54.238Z,100572.84
2022-11-07T03:04:21.295Z,100580.16
2022-11-07T03:06:48.212Z,100574.84
2022-11-07T03:09:15.363Z,100573.50
2022-11-07T03:11:42.298Z,100577.81
2022-11-07T03:14:10.533Z,100577.63
2022-11-07T03:16:37.477Z,100581.94
2022-11-07T03:19:04.435Z,100590.31
2022-11-07T03:21:31.340Z,100601.13
2022-11-07T03:23:59.470Z,100611.84
2022-11-07T03:26:26.506Z,100611.63
2022-11-07T03:28:53.441Z,100606.50
2022-11-07T03:31:21.708Z,100609.16
2022-11-07T03:33:48.653Z,100606.25
2022-11-07T03:36:15.745Z,100609.09
2022-11-07T03:38:42.647Z,100604.16
2022-11-07T03:41:09.562Z,100607.38
2022-11-07T03:43:36.509Z,100608.13
2022-11-07T03:46:03.453Z,100603.22
2022-11-07T03:48:31.699Z,100603.06
2022-11-07T03:50:58.635Z,100600.41
2022-11-07T03:53:26.387Z,100600.84
2022-11-07T03:55:56.066Z,100595.00
2022-11-07T03:58:24.413Z,100601.78
2022-11-07T04:00:51.706Z,100606.50
2022-11-07T04:03:18.746Z,100600.97
2022-11-07T04:05:47.079Z,100607.06
2022-11-07T04:08:14.006Z,100611.09
2022-11-07T04:10:40.950Z,100606.06
2022-11-07T04:13:28.064Z,100607.53
2022-11-07T04:16:17.597Z,100603.84
2022-11-07T04:18:45.098Z,100605.47
2022-11-07T04:21:13.578Z,100605.03
2022-11-07T04:23:40.507Z,100610.78
2022-11-07T04:26:26.082Z,100625.03
2022-11-07T04:28:53.051Z,100629.38
2022-11-07T04:31:20.070Z,100621.06
2022-11-07T04:33:47.055Z,100636.59
2022-11-07T04:36:15.359Z,100636.31
2022-11-07T04:38:42.257Z,100633.81
2022-11-07T04:41:19.660Z,100626.66
2022-11-07T04:43:46.663Z,100635.97
2022-11-07T04:46:13.879Z,100631.28
2022-11-07T04:48:40.878Z,100629.88
2022-11-07T04:51:18.874Z,100635.19
2022-11-07T04:53:45.924Z,100636.38
2022-11-07T04:56:12.869Z,100636.75
2022-11-07T04:58:39.859Z,100642.22
2022-11-07T05:01:06.803Z,100632.66
2022-11-07T05:03:38.876Z,100630.41
2022-11-07T05:06:13.968Z,100632.63
2022-11-07T05:08:42.339Z,100638.13
2022-11-07T05:11:09.253Z,100638.72
2022-11-07T05:13:36.205Z,100645.81
2022-11-07T05:16:03.446Z,100643.53
2022-11-07T05:18:30.362Z,100643.47
2022-11-07T05:20:57.272Z,100644.66
2022-11-07T05:23:25.127Z,100649.97
2022-11-07T05:25:54.917Z,100644.47
2022-11-07T05:28:33.569Z,100653.09
2022-11-07T05:31:04.778Z,100652.94
2022-11-07T05:33:31.987Z,100654.59
2022-11-07T05:36:10.005Z,100646.69
2022-11-07T05:38:37.080Z,100656.28
2022-11-07T05:41:05.563Z,100648.88
2022-11-07T05:43:32.589Z,100651.28
2022-11-07T05:46:00.347Z,100659.84
2022-11-07T05:48:27.863Z,100662.69
2022-11-07T05:50:54.855Z,100666.31
2022-11-07T05:53:21.928Z,100669.81
2022-11-07T05:55:49.997Z,100663.88
2022-11-07T05:58:19.389Z,100668.88
2022-11-07T06:00:47.301Z,100665.66
2022-11-07T06:03:14.961Z,100665.97
2022-11-07T06:05:43.384Z,100675.53
2022-11-07T06:08:13.930Z,100671.22
2022-11-07T06:10:42.697Z,100672.63
2022-11-07T06:13:13.361Z,100683.31
2022-11-07T06:15:44.046Z,100681.66
2022-11-07T06:18:15.292Z,100687.09
2022-11-07T06:20:42.540Z,100687.94
2022-11-07T06:23:10.832Z,100702.88
2022-11-07T06:25:38.660Z,100689.13
2022-11-07T06:28:08.727Z,100690.00
2022-11-07T06:30:36.732Z,100694.91
2022-11-07T06:33:08.052Z,100695.75
2022-11-07T06:35:36.571Z,100708.38
2022-11-07T06:38:04.640Z,100703.47
2022-11-07T06:40:31.846Z,100699.16
2022-11-07T06:43:06.656Z,100702.66
2022-11-07T06:45:34.939Z,100700.16
2022-11-07T06:48:01.883Z,100711.63
2022-11-07T06:50:30.168Z,100712.81
2022-11-07T06:53:01.886Z,100714.44
2022-11-07T06:55:29.028Z,100716.88
2022-11-07T06:57:59.218Z,100714.00
2022-11-07T07:00:26.873Z,100716.09
2022-11-07T07:02:58.410Z,100716.53
2022-11-07T07:05:26.153Z,100721.91
2022-11-07T07:07:55.357Z,100720.22
2022-11-07T07:10:22.812Z,100723.03
2022-11-07T07:12:49.785Z,100718.53
2022-11-07T07:15:16.959Z,100722.03
2022-11-07T07:17:43.926Z,100726.28
2022-11-07T07:20:12.076Z,100720.56
2022-11-07T07:22:39.006Z,100725.28
2022-11-07T07:25:09.427Z,100728.34
2022-11-07T07:27:36.392Z,100739.28
2022-11-07T07:30:04.355Z,100736.97
2022-11-07T07:32:31.283Z,100746.94
2022-11-07T07:34:58.353Z,100744.38
2022-11-07T07:37:25.406Z,100740.47
2022-11-07T07:39:52.653Z,100742.25
2022-11-07T07:42:20.980Z,100748.72
2022-11-07T07:44:47.999Z,100746.22
2022-11-07T07:47:16.173Z,100748.22
2022-11-07T07:49:43.197Z,100754.03
2022-11-07T07:52:10.176Z,100754.41
2022-11-07T07:54:37.619Z,100750.41
2022-11-07T07:57:04.560Z,100757.97
2022-11-07T07:59:33.150Z,100745.50
2022-11-07T08:02:00.164Z,100748.78
2022-11-07T08:04:27.295Z,100756.75
2022-11-07T08:06:54.279Z,100757.50
2022-11-07T08:09:21.337Z,100759.94
2022-11-07T08:11:48.328Z,100755.94
2022-11-07T08:14:15.483Z,100754.50
2022-11-07T08:16:43.923Z,100768.63
2022-11-07T08:19:10.866Z,100777.13
2022-11-07T08:21:37.795Z,100769.28
2022-11-07T08:24:05.457Z,100767.16
2022-11-07T08:26:32.401Z,100766.03
2022-11-07T08:28:59.515Z,100762.94
2022-11-07T08:31:26.498Z,100765.72
2022-11-07T08:33:57.560Z,100774.34
2022-11-07T08:36:24.729Z,100769.38
2022-11-07T08:38:51.748Z,100765.59
2022-11-07T08:41:22.347Z,100772.69
2022-11-07T08:43:49.913Z,100783.97
2022-11-07T08:46:17.058Z,100771.28
2022-11-07T08:48:43.992Z,100777.28
2022-11-07T08:51:12.610Z,100771.38
2022-11-07T08:53:39.546Z,100776.09
2022-11-07T08:56:09.765Z,100769.03
2022-11-07T08:58:37.878Z,100775.22
2022-11-07T09:01:09.385Z,100780.53
2022-11-07T09:03:46.126Z,100790.84
2022-11-07T09:06:18.072Z,100781.72
2022-11-07T09:08:45.567Z,100783.06
2022-11-07T09:11:15.465Z,100788.25
2022-11-07T09:13:42.492Z,100797.69
2022-11-07T09:16:11.082Z,100789.84
2022-11-07T09:18:40.755Z,100789.56
2022-11-07T09:21:07.727Z,100794.75
2022-11-07T09:23:36.260Z,100792.06
2022-11-07T09:26:06.809Z,100795.72
2022-11-07T09:28:34.687Z,100794.00
2022-11-07T09:31:03.839Z,100795.47
2022-11-07T09:33:31.828Z,100797.25
2022-11-07T09:36:00.627Z,100808.50
2022-11-07T09:38:28.084Z,100799.25
2022-11-07T09:41:05.718Z,100808.38
2022-11-07T09:44:00.211Z,100819.47
2022-11-07T09:46:47.048Z,100815.78
2022-11-07T09:49:21.936Z,100799.78
2022-11-07T09:52:00.951Z,100800.91
2022-11-07T09:54:33.197Z,100805.56
2022-11-07T09:57:02.317Z,100811.47
2022-11-07T09:59:38.713Z,100809.56
2022-11-07T10:02:15.633Z,100818.88
2022-11-07T10:04:44.403Z,100824.06
2022-11-07T10:07:26.047Z,100833.22
2022-11-07T10:10:02.402Z,100828.81
2022-11-07T10:13:15.027Z,100834.94
2022-11-07T10:16:02.106Z,100830.59
2022-11-07T10:18:48.274Z,100839.75
2022-11-07T10:21:41.524Z,100845.25
2022-11-07T10:24:42.968Z,100855.75
2022-11-07T10:27:11.324Z,100839.47
2022-11-07T10:29:47.822Z,100840.81
2022-11-07T10:32:22.959Z,100841.31
2022-11-07T10:34:58.271Z,100835.41
2022-11-07T10:37:25.492Z,100839.78
2022-11-07T10:39:52.422Z,100842.53
2022-11-07T10:42:25.464Z,100828.50
2022-11-07T10:44:56.283Z,100830.41
2022-11-07T10:47:27.627Z,100840.31
2022-11-07T10:49:58.102Z,100822.94
2022-11-07T10:52:28.379Z,100828.41
2022-11-07T10:55:07.806Z,100821.59
2022-11-07T10:57:36.069Z,100836.38
2022-11-07T11:00:21.648Z,100819.66
2022-11-07T11:02:50.273Z,100825.22
2022-11-07T11:05:25.065Z,100831.03
2022-11-07T11:07:52.218Z,100827.44
2022-11-07T11:10:21.896Z,100825.03
2022-11-07T11:12:49.892Z,100828.44
2022-11-07T11:15:21.561Z,100821.00
2022-11-07T11:18:00.475Z,100831.34
2022-11-07T11:20:37.664Z,100828.81
2022-11-07T11:23:07.853Z,100821.00
2022-11-07T11:25:45.410Z,100810.91
2022-11-07T11:28:23.571Z,100815.91
2022-11-07T11:31:03.608Z,100817.56
2022-11-07T11:33:38.770Z,100814.19
2022-11-07T11:36:15.176Z,100812.31
2022-11-07T11:38:52.940Z,100818.25
2022-11-07T11:41:27.843Z,100822.78
2022-11-07T11:44:01.107Z,100828.13
2022-11-07T11:46:36.809Z,100825.44
2022-11-07T11:49:15.335Z,100821.00
2022-11-07T11:51:48.894Z,100821.81
2022-11-07T11:54:19.607Z,100821.38
2022-11-07T11:56:53.390Z,100818.91
2022-11-07T11:59:46.676Z,100822.97
2022-11-07T12:03:01.338Z,100828.09
2022-11-07T12:06:11.903Z,100821.72
2022-11-07T12:09:06.304Z,100827.16
2022-11-07T12:11:46.173Z,100838.56
2022-11-07T12:14:42.842Z,100834.84
2022-11-07T12:17:19.084Z,100834.84
2022-11-07T12:19:58.685Z,100842.16
2022-11-07T12:22:44.967Z,100843.53
2022-11-07T12:25:23.959Z,100834.94
2022-11-07T12:28:03.821Z,100830.28
2022-11-07T12:30:49.453Z,100844.56
2022-11-07T12:33:31.834Z,100842.63
2022-11-07T12:36:10.493Z,100845.41
2022-11-07T12:39:22.154Z,100839.56
2022-11-07T12:41:57.409Z,100850.06
2022-11-07T12:44:45.711Z,100839.25
2022-11-07T12:47:36.473Z,100836.34
2022-11-07T12:50:22.962Z,100840.41
2022-11-07T12:53:10.475Z,100846.94
2022-11-07T12:55:46.288Z,100837.75
2022-11-07T12:58:20.668Z,100841.22
2022-11-07T13:00:50.122Z,100844.13
2022-11-07T13:03:45.573Z,100847.75
2022-11-07T13:06:23.859Z,100840.63
2022-11-07T13:09:05.965Z,100842.63
2022-11-07T13:11:46.664Z,100851.44
2022-11-07T13:14:26.710Z,100846.22
2022-11-07T13:17:13.677Z,100842.84
2022-11-07T13:19:44.061Z,100841.59
2022-11-07T13:22:24.765Z,100851.13
2022-11-07T13:25:09.357Z,100845.78
2022-11-07T13:27:41.154Z,100855.41
2022-11-07T13:30:21.130Z,100847.50
2022-11-07T13:32:50.898Z,100844.84
2022-11-07T13:35:37.546Z,100842.41
2022-11-07T13:38:13.588Z,100834.28
2022-11-07T13:40:48.015Z,100848.44
2022-11-07T13:43:20.944Z,100854.47
2022-11-07T13:45:52.465Z,100844.84
2022-11-07T13:48:25.376Z,100847.63
2022-11-07T13:51:05.090Z,100854.13
2022-11-07T13:53:41.811Z,100853.75
2022-11-07T13:56:26.303Z,100851.69
2022-11-07T13:58:55.146Z,100855.53
2022-11-07T14:01:23.362Z,100854.47
2022-11-07T14:03:50.788Z,100859.22
2022-11-07T14:06:18.459Z,100850.06
2022-11-07T14:08:47.847Z,100852.72
2022-11-07T14:11:20.515Z,100850.63
2022-11-07T14:13:52.141Z,100850.63
2022-11-07T14:16:23.040Z,100853.31
2022-11-07T14:18:56.070Z,100857.13
2022-11-07T14:21:28.702Z,100855.78
2022-11-07T14:23:56.346Z,100855.28
2022-11-07T14:26:32.735Z,100853.69
2022-11-07T14:29:00.912Z,100856.91
2022-11-07T14:31:32.049Z,100862.84
2022-11-07T14:34:05.530Z,100861.22
2022-11-07T14:36:34.515Z,100859.34
2022-11-07T14:39:08.976Z,100857.38
2022-11-07T14:41:49.569Z,100857.84
2022-11-07T14:44:20.309Z,100867.25
2022-11-07T14:46:49.271Z,100869.13
2022-11-07T14:49:25.161Z,100868.31
2022-11-07T14:51:54.092Z,100867.59
2022-11-07T14:54:30.469Z,100875.25
2022-11-07T14:57:00.967Z,100871.28
2022-11-07T14:59:33.490Z,100878.72
2022-11-07T15:02:24.961Z,100883.56
2022-11-07T15:04:56.664Z,100883.13
2022-11-07T15:07:30.232Z,100888.59
2022-11-07T15:10:12.407Z,100875.59
2022-11-07T15:12:52.429Z,100883.56
2022-11-07T15:15:23.239Z,100878.59
2022-11-07T15:17:56.115Z,100871.28
2022-11-07T15:20:37.794Z,100878.22
2022-11-07T15:23:28.459Z,100873.25
2022-11-07T15:25:59.596Z,100876.78
2022-11-07T15:28:30.505Z,100878.28
2022-11-07T15:31:00.536Z,100890.03
2022-11-07T15:33:32.728Z,100884.69
2022-11-07T15:36:01.951Z,100886.94
2022-11-07T15:38:30.377Z,100893.16
2022-11-07T15:42:03.139Z,100890.25
2022-11-07T15:44:32.032Z,100893.78
2022-11-07T15:46:59.754Z,100892.78
2022-11-07T15:49:28.573Z,100896.25
2022-11-07T15:51:56.474Z,100894.53
2022-11-07T15:54:23.851Z,100889.19
2022-11-07T15:56:58.433Z,100897.63
2022-11-07T15:59:33.493Z,100900.78
2022-11-07T16:02:05.639Z,100897.06
2022-11-07T16:04:37.868Z,100895.44
2022-11-07T16:07:15.793Z,100897.97
2022-11-07T16:09:43.642Z,100895.16
2022-11-07T16:12:13.295Z,100897.66
2022-11-07T16:14:44.400Z,100888.25
2022-11-07T16:17:14.839Z,100897.38
2022-11-07T16:19:42.801Z,100902.03
2022-11-07T16:22:14.516Z,100902.28
2022-11-07T16:24:44.850Z,100896.94
2022-11-07T16:27:17.388Z,100912.94
2022-11-07T16:29:48.016Z,100914.13
2022-11-07T16:32:18.321Z,100919.31
2022-11-07T16:34:47.318Z,100913.19
2022-11-07T16:37:16.982Z,100914.28
2022-11-07T16:39:44.637Z,100915.53
2022-11-07T16:42:18.201Z,100923.31
2022-11-07T16:44:47.323Z,100924.50
2022-11-07T16:47:20.305Z,100917.19
2022-11-07T16:49:52.184Z,100923.31
2022-11-07T16:52:25.429Z,100921.22
2022-11-07T16:54:52.981Z,100921.69
2022-11-07T16:57:21.180Z,100924.13
2022-11-07T16:59:52.351Z,100933.53
2022-11-07T17:02:23.148Z,100926.56
2022-11-07T17:04:54.332Z,100930.28
2022-11-07T17:07:23.884Z,100934.34
2022-11-07T17:09:51.856Z,100933.44
2022-11-07T17:12:22.318Z,100931.47
2022-11-07T17:14:51.410Z,100928.78
2022-11-07T17:17:19.865Z,100935.63
2022-11-07T17:19:47.447Z,100933.53
2022-11-07T17:22:17.895Z,100934.56
2022-11-07T17:27:33.969Z,100935.19
2022-11-07T17:30:08.178Z,100942.50
2022-11-07T17:32:35.906Z,100938.44
2022-11-07T17:35:31.538Z,100936.34
2022-11-07T17:40:51.678Z,100948.88
2022-11-07T17:43:18.949Z,100948.28
2022-11-07T17:45:48.152Z,100947.84
2022-11-07T17:48:15.852Z,100943.34
2022-11-07T17:50:46.215Z,100942.13
2022-11-07T17:53:13.481Z,100938.00
2022-11-07T17:55:40.876Z,100940.78
2022-11-07T17:58:10.143Z,100934.66
2022-11-07T18:00:58.241Z,100938.34
2022-11-07T18:03:25.662Z,100939.59
2022-11-07T18:05:53.958Z,100930.72
2022-11-07T18:08:45.998Z,100932.94
2022-11-07T18:11:09.266Z,100938.72
2022-11-07T18:13:36.605Z,100929.81
2022-11-07T18:16:09.425Z,100930.84
2022-11-07T18:18:37.134Z,100934.56
2022-11-07T18:21:04.869Z,100938.84
2022-11-07T18:23:32.088Z,100937.81
2022-11-07T18:26:05.092Z,100929.25
2022-11-07T18:28:35.263Z,100937.09
2022-11-07T18:31:05.483Z,100935.91
2022-11-07T18:33:34.559Z,100940.03
2022-11-07T18:36:04.620Z,100938.78
2022-11-07T18:38:32.698Z,100936.44
2022-11-07T18:41:02.402Z,100930.50
2022-11-07T18:43:30.154Z,100944.03
2022-11-07T18:45:57.494Z,100939.78
2022-11-07T18:48:25.548Z,100942.72
2022-11-07T18:50:55.882Z,100945.53
2022-11-07T18:53:24.278Z,100949.69
2022-11-07T18:55:57.579Z,100942.72
2022-11-07T18:58:25.561Z,100947.84
2022-11-07T19:00:53.027Z,100948.09
2022-11-07T19:03:20.214Z,100944.00
2022-11-07T19:05:47.601Z,100942.28
2022-11-07T19:08:16.460Z,100941.88
2022-11-07T19:10:43.842Z,100938.63
2022-11-07T19:13:11.135Z,100943.13
2022-11-07T19:15:39.445Z,100946.00
2022-11-07T19:18:07.182Z,100944.78
2022-11-07T19:20:34.531Z,100950.53
2022-11-07T19:23:02.001Z,100949.34
2022-11-07T19:25:30.849Z,100948.94
2022-11-07T19:27:58.034Z,100947.94
2022-11-07T19:30:25.241Z,100940.00
2022-11-07T19:32:53.609Z,100945.94
2022-11-07T19:35:21.160Z,100949.19
2022-11-07T19:37:48.474Z,100944.00
2022-11-07T19:40:15.790Z,100940.28
2022-11-07T19:42:44.404Z,100938.88
2022-11-07T19:45:12.127Z,100934.81
2022-11-07T19:47:39.315Z,100933.78
2022-11-07T19:50:07.704Z,100938.53
2022-11-07T19:52:35.082Z,100940.75
2022-11-07T19:55:02.517Z,100944.00
2022-11-07T19:57:29.624Z,100934.97
2022-11-07T19:59:58.823Z,100942.53
2022-11-07T20:02:32.863Z,100940.09
2022-11-07T20:05:01.655Z,100939.47
2022-11-07T20:07:28.625Z,100936.97
2022-11-07T20:09:56.723Z,100941.34
2022-11-07T20:12:23.679Z,100940.75
2022-11-07T20:14:50.694Z,100944.88
2022-11-07T20:17:18.972Z,100941.19
2022-11-07T20:19:46.004Z,100942.59
2022-11-07T20:22:13.430Z,100952.59
2022-11-07T20:24:40.383Z,100948.09
2022-11-07T20:27:07.297Z,100950.38
2022-11-07T20:29:35.314Z,100949.78
2022-11-07T20:32:02.265Z,100951.84
2022-11-07T20:34:30.637Z,100956.75
2022-11-07T20:36:57.632Z,100950.94
2022-11-07T20:39:24.598Z,100952.00
2022-11-07T20:41:51.535Z,100951.41
2022-11-07T20:44:18.470Z,100952.59
2022-11-07T20:46:45.831Z,100961.78
2022-11-07T20:49:15.630Z,100957.50
2022-11-07T20:51:45.000Z,100952.16
2022-11-07T20:54:13.836Z,100957.06
2022-11-07T20:56:42.455Z,100957.06
2022-11-07T20:59:09.946Z,100956.28
2022-11-07T21:01:37.940Z,100959.72
2022-11-07T21:04:08.009Z,100955.44
2022-11-07T21:06:35.847Z,100958.72
2022-11-07T21:09:06.679Z,100960.78
2022-11-07T21:11:34.232Z,100954.56
2022-11-07T21:14:01.842Z,100952.94
2022-11-07T21:16:29.900Z,100954.56
2022-11-07T21:18:57.038Z,100961.97
2022-11-07T21:21:27.468Z,100958.72
2022-11-07T21:23:57.415Z,100956.03
2022-11-07T21:26:31.481Z,100958.28
2022-11-07T21:28:59.553Z,100962.41
2022-11-07T21:31:30.534Z,100957.69
2022-11-07T21:33:58.281Z,100958.28
2022-11-07T21:36:29.237Z,100958.28
2022-11-07T21:38:57.608Z,100964.44
2022-11-07T21:41:26.847Z,100961.59
2022-11-07T21:43:54.051Z,100960.78
2022-11-07T21:46:25.332Z,100965.69
2022-11-07T21:48:54.054Z,100960.34
2022-11-07T21:51:24.205Z,100952.94
2022-11-07T21:53:51.736Z,100959.47
2022-11-07T21:56:24.595Z,100960.28
2022-11-07T21:58:56.140Z,100960.44
2022-11-07T22:01:23.942Z,100959.53
2022-11-07T22:04:11.816Z,100964.88
2022-11-07T22:06:43.735Z,100969.19
2022-11-07T22:09:14.468Z,100970.44
2022-11-07T22:11:41.470Z,100965.09
2022-11-07T22:14:13.667Z,100965.97
2022-11-07T22:16:40.701Z,100960.19
2022-11-07T22:19:12.283Z,100966.72
2022-11-07T22:21:40.489Z,100965.91
2022-11-07T22:24:08.217Z,100967.44
2022-11-07T22:26:35.434Z,100971.75
2022-11-07T22:29:02.703Z,100967.00
2022-11-07T22:31:31.688Z,100968.06
2022-11-07T22:34:00.787Z,100971.09
2022-11-07T22:36:28.866Z,100965.53
2022-11-07T22:38:57.346Z,100969.84
2022-11-07T22:41:26.840Z,100972.28
2022-11-07T22:43:54.759Z,100972.75
2022-11-07T22:46:25.248Z,100971.31
2022-11-07T22:48:54.333Z,100964.25
2022-11-07T22:51:24.066Z,100956.22
2022-11-07T22:53:57.003Z,100959.09
2022-11-07T22:56:24.485Z,100964.81
2022-11-07T22:58:51.824Z,100961.53
2022-11-07T23:01:21.598Z,100957.63
2022-11-07T23:03:50.377Z,100964.34
2022-11-07T23:06:19.931Z,100956.94
2022-11-07T23:08:48.165Z,100954.28
2022-11-07T23:14:10.584Z,100953.66
2022-11-07T23:16:42.386Z,100959.47
2022-11-07T23:19:14.716Z,100962.13
2022-11-07T23:21:43.514Z,100948.41
2022-11-07T23:24:11.200Z,100962.72
2022-11-07T23:26:38.442Z,100959.47
2022-11-07T23:29:11.809Z,100959.09
2022-11-07T23:31:39.415Z,100960.34
2022-11-07T23:34:06.909Z,100955.25
2022-11-07T23:36:34.043Z,100953.53
2022-11-07T23:39:05.669Z,100947.59
2022-11-07T23:41:33.171Z,100952.34
2022-11-07T23:44:00.724Z,100948.28
2022-11-07T23:46:46.242Z,100956.50
2022-11-07T23:49:31.859Z,100954.28
2022-11-07T23:51:58.842Z,100953.69
2022-11-07T23:54:45.719Z,100948.34
2022-11-07T23:57:12.739Z,100950.88
2022-11-07T23:59:58.894Z,100951.69
